TimePDT,TemperatureF,Dew PointF,Humidity,Sea Level PressureIn,VisibilityMPH,Wind Direction,Wind SpeedMPH,Gust SpeedMPH,PrecipitationIn,Events,Conditions,WindDirDegrees,DateUTC
12:53 AM,44.1,39.9,85,30.24,10.0,SW,8.1,-,N/A,,Clear,230,2013-10-13 07:53:00
1:53 AM,44.1,39.9,85,30.25,10.0,SW,6.9,-,N/A,,Clear,230,2013-10-13 08:53:00
2:53 AM,43.0,39.0,86,30.26,10.0,WSW,10.4,-,N/A,,Clear,240,2013-10-13 09:53:00
3:53 AM,43.0,39.0,86,30.27,10.0,SW,8.1,-,N/A,,Clear,230,2013-10-13 10:53:00
4:53 AM,39.9,37.9,93,30.27,10.0,Calm,Calm,-,N/A,,Clear,0,2013-10-13 11:53:00
5:53 AM,41.0,37.9,89,30.29,10.0,WSW,5.8,-,N/A,,Clear,240,2013-10-13 12:53:00
6:53 AM,42.1,37.9,85,30.29,10.0,WSW,9.2,-,N/A,,Clear,240,2013-10-13 13:53:00
7:53 AM,41.0,37.9,89,30.31,10.0,WSW,6.9,-,N/A,,Clear,240,2013-10-13 14:53:00
8:53 AM,46.0,39.9,79,30.32,10.0,SW,8.1,-,N/A,,Clear,230,2013-10-13 15:53:00
9:53 AM,50.0,43.0,77,30.32,10.0,WSW,3.5,-,N/A,,Clear,240,2013-10-13 16:53:00
10:53 AM,53.1,45.0,74,30.33,10.0,East,4.6,-,N/A,,Clear,90,2013-10-13 17:53:00
11:53 AM,54.0,46.0,75,30.32,10.0,ENE,5.8,-,N/A,,Clear,60,2013-10-13 18:53:00
12:53 PM,55.0,46.0,72,30.32,10.0,Calm,Calm,-,N/A,,Clear,0,2013-10-13 19:53:00
1:53 PM,55.9,46.0,69,30.32,10.0,ENE,3.5,-,N/A,,Clear,60,2013-10-13 20:53:00
2:53 PM,55.9,46.0,69,30.32,10.0,East,4.6,-,N/A,,Clear,90,2013-10-13 21:53:00
3:53 PM,57.0,45.0,64,30.32,10.0,East,3.5,-,N/A,,Clear,90,2013-10-13 22:53:00
4:53 PM,57.0,44.1,62,30.32,10.0,Variable,3.5,-,N/A,,Clear,0,2013-10-13 23:53:00
5:53 PM,55.0,41.0,59,30.32,10.0,SSE,3.5,-,N/A,,Clear,150,2013-10-14 00:53:00
6:53 PM,48.9,44.1,83,30.33,10.0,SW,4.6,-,N/A,,Clear,230,2013-10-14 01:53:00
7:53 PM,46.9,43.0,86,30.35,10.0,SW,4.6,-,N/A,,Clear,230,2013-10-14 02:53:00
8:53 PM,46.9,42.1,83,30.35,10.0,SW,6.9,-,N/A,,Clear,230,2013-10-14 03:53:00
9:53 PM,46.9,41.0,80,30.36,10.0,West,4.6,-,N/A,,Clear,270,2013-10-14 04:53:00
10:53 PM,42.1,41.0,96,30.37,10.0,WSW,4.6,-,N/A,,Clear,250,2013-10-14 05:53:00
11:53 PM,41.0,39.0,93,30.38,10.0,SW,5.8,-,N/A,,Clear,230,2013-10-14 06:53:00